Time;durP1;ratioP1;P1;durP2;ratioP2;P2;SDS_P1;SDS_P2;PMS_P1;PMS_P2;Temp;Humidity;BMP_temperature;BMP_pressure;BME280_temperature;BME280_humidity;BME280_pressure;Samples;Min_cycle;Max_cycle;Signal;HPM_P1;HPM_P2
2023/05/09 00:01:18;;;;;;;5.25;4.35;;;;;;;;;;5106550;28;20501;-69
2023/05/09 00:03:44;;;;;;;5.50;4.43;;;;;;;;;;5106657;28;20368;-62
2023/05/09 00:06:10;;;;;;;8.15;5.00;;;;;;;;;;5106838;28;20497;-65
2023/05/09 00:08:36;;;;;;;6.18;5.00;;;;;;;;;;5106376;28;20165;-56
2023/05/09 00:11:03;;;;;;;7.75;5.00;;;;;;;;;;5108116;28;20035;-66
2023/05/09 00:13:29;;;;;;;6.25;4.22;;;;;;;;;;5106574;28;20035;-67
2023/05/09 00:15:56;;;;;;;7.05;4.68;;;;;;;;;;5106372;28;20023;-64
2023/05/09 00:18:22;;;;;;;6.53;4.43;;;;;;;;;;5106431;28;20023;-68
2023/05/09 00:20:49;;;;;;;6.20;4.28;;;;;;;;;;5106617;28;20039;-68
2023/05/09 00:23:15;;;;;;;6.30;4.68;;;;;;;;;;5108477;28;20023;-69
2023/05/09 00:25:41;;;;;;;5.82;4.18;;;;;;;;;;5106566;28;20063;-68
2023/05/09 00:28:07;;;;;;;5.30;4.35;;;;;;;;;;5107827;28;20356;-67
2023/05/09 00:30:33;;;;;;;5.22;4.50;;;;;;;;;;5106609;28;20046;-67
2023/05/09 00:33:00;;;;;;;6.90;5.07;;;;;;;;;;5106643;28;20095;-66
2023/05/09 00:35:26;;;;;;;5.10;4.35;;;;;;;;;;5106500;28;20495;-63
2023/05/09 00:37:52;;;;;;;5.70;4.95;;;;;;;;;;5104806;28;20128;-68
2023/05/09 00:40:18;;;;;;;6.05;4.95;;;;;;;;;;5106460;28;20124;-71
2023/05/09 00:42:44;;;;;;;6.47;4.93;;;;;;;;;;5106312;28;20451;-62
2023/05/09 00:45:10;;;;;;;6.70;4.82;;;;;;;;;;5106607;28;20522;-65
2023/05/09 00:47:37;;;;;;;5.05;4.25;;;;;;;;;;5107409;28;20367;-65
2023/05/09 00:50:04;;;;;;;5.28;4.25;;;;;;;;;;5106607;28;20023;-64
2023/05/09 00:52:30;;;;;;;6.60;4.72;;;;;;;;;;5107406;28;20435;-63
2023/05/09 00:54:56;;;;;;;5.22;4.25;;;;;;;;;;5107489;28;20081;-66
2023/05/09 00:57:22;;;;;;;6.28;3.78;;;;;;;;;;5107241;28;20027;-62
2023/05/09 00:59:49;;;;;;;5.65;4.55;;;;;;;;;;5105990;28;20400;-65
2023/05/09 01:02:16;;;;;;;6.72;4.57;;;;;;;;;;5107292;28;20026;-71
2023/05/09 01:04:43;;;;;;;6.20;4.53;;;;;;;;;;5108116;28;20031;-69
2023/05/09 01:07:11;;;;;;;6.35;4.88;;;;;;;;;;5110705;28;20047;-66
2023/05/09 01:09:45;;;;;;;5.28;4.30;;;;;;;;;;5111497;28;20549;-67
2023/05/09 01:12:34;;;;;;;5.93;4.32;;;;;;;;;;5109852;28;20031;-63
2023/05/09 01:15:07;;;;;;;5.82;4.90;;;;;;;;;;5110160;28;20366;-66
2023/05/09 01:17:45;;;;;;;5.75;4.55;;;;;;;;;;5110301;28;20077;-68
2023/05/09 01:20:11;;;;;;;4.40;3.92;;;;;;;;;;5109458;28;20042;-63
2023/05/09 01:22:39;;;;;;;5.57;4.47;;;;;;;;;;5110117;28;20024;-60
2023/05/09 01:25:24;;;;;;;6.38;4.78;;;;;;;;;;5110774;28;20047;-66
2023/05/09 01:28:08;;;;;;;6.28;4.97;;;;;;;;;;5110137;28;20043;-57
2023/05/09 01:30:35;;;;;;;4.93;4.28;;;;;;;;;;5108740;28;20168;-69
2023/05/09 01:33:01;;;;;;;5.68;4.80;;;;;;;;;;5109045;28;20412;-63
2023/05/09 01:35:30;;;;;;;6.72;4.55;;;;;;;;;;5109551;28;20102;-69
2023/05/09 01:37:56;;;;;;;5.75;4.32;;;;;;;;;;5109015;28;20027;-58
2023/05/09 01:40:23;;;;;;;5.53;4.32;;;;;;;;;;5109340;28;20050;-68
2023/05/09 01:42:51;;;;;;;4.95;4.30;;;;;;;;;;5109768;28;20027;-68
2023/05/09 01:45:18;;;;;;;5.10;4.38;;;;;;;;;;5109264;28;20027;-57
2023/05/09 01:47:44;;;;;;;5.47;3.88;;;;;;;;;;5108344;28;20022;-63
2023/05/09 01:50:11;;;;;;;5.38;4.13;;;;;;;;;;5109049;28;20027;-62
2023/05/09 01:52:38;;;;;;;7.10;4.05;;;;;;;;;;5109813;28;20107;-58
2023/05/09 01:55:05;;;;;;;5.18;3.95;;;;;;;;;;5111158;28;21256;-64
2023/05/09 01:57:32;;;;;;;4.60;3.97;;;;;;;;;;5109215;28;20534;-64
2023/05/09 01:59:59;;;;;;;5.32;4.38;;;;;;;;;;5108639;28;20441;-69
2023/05/09 02:02:26;;;;;;;6.80;4.80;;;;;;;;;;5108733;28;20020;-69
2023/05/09 02:04:54;;;;;;;5.90;4.72;;;;;;;;;;5108855;28;20100;-68
2023/05/09 02:07:21;;;;;;;6.18;4.60;;;;;;;;;;5108757;28;20050;-64
2023/05/09 02:09:49;;;;;;;5.93;4.25;;;;;;;;;;5110101;28;20516;-59
2023/05/09 02:12:15;;;;;;;4.88;4.03;;;;;;;;;;5108552;28;20024;-69
2023/05/09 02:14:41;;;;;;;4.85;3.90;;;;;;;;;;5108071;28;20052;-66
2023/05/09 02:17:08;;;;;;;5.78;4.28;;;;;;;;;;5108967;28;21338;-58
2023/05/09 02:19:35;;;;;;;5.85;4.10;;;;;;;;;;5108438;28;20491;-66
2023/05/09 02:22:01;;;;;;;4.85;4.10;;;;;;;;;;5107606;28;20114;-56
2023/05/09 02:24:27;;;;;;;5.50;4.07;;;;;;;;;;5111182;28;20094;-59
2023/05/09 02:26:54;;;;;;;4.20;3.78;;;;;;;;;;5108310;28;20391;-69
2023/05/09 02:29:21;;;;;;;5.13;3.95;;;;;;;;;;5109735;28;20475;-62
2023/05/09 02:31:48;;;;;;;5.45;4.60;;;;;;;;;;5107510;28;20487;-62
2023/05/09 02:34:14;;;;;;;4.88;3.90;;;;;;;;;;5108850;27;20020;-69
2023/05/09 02:36:40;;;;;;;5.13;4.55;;;;;;;;;;5110474;28;20028;-58
2023/05/09 02:39:06;;;;;;;5.13;3.95;;;;;;;;;;5108354;28;20096;-67
2023/05/09 02:41:32;;;;;;;5.45;4.15;;;;;;;;;;5108968;28;20399;-59
2023/05/09 02:43:58;;;;;;;4.95;4.25;;;;;;;;;;5110268;28;20020;-65
2023/05/09 02:46:25;;;;;;;4.25;3.78;;;;;;;;;;5107595;28;20034;-69
2023/05/09 02:48:51;;;;;;;6.10;4.85;;;;;;;;;;5108883;28;20023;-59
2023/05/09 02:51:17;;;;;;;6.10;4.05;;;;;;;;;;5110267;28;20106;-64
2023/05/09 02:53:43;;;;;;;5.00;4.20;;;;;;;;;;5107576;28;20027;-69
2023/05/09 02:56:09;;;;;;;4.97;4.47;;;;;;;;;;5108435;28;20464;-69
2023/05/09 02:58:35;;;;;;;4.72;4.28;;;;;;;;;;5110707;28;20031;-57
2023/05/09 03:01:01;;;;;;;5.35;4.40;;;;;;;;;;5107195;28;20043;-56
2023/05/09 03:03:27;;;;;;;5.38;3.70;;;;;;;;;;5108557;28;20034;-66
2023/05/09 03:05:53;;;;;;;4.50;3.90;;;;;;;;;;5109826;28;20656;-68
2023/05/09 03:08:19;;;;;;;4.85;4.10;;;;;;;;;;5107531;28;20016;-62
2023/05/09 03:10:46;;;;;;;4.45;4.03;;;;;;;;;;5109540;28;20040;-57
2023/05/09 03:13:12;;;;;;;4.68;4.20;;;;;;;;;;5109635;27;20011;-69
2023/05/09 03:15:38;;;;;;;4.93;3.85;;;;;;;;;;5107193;28;20035;-65
2023/05/09 03:18:04;;;;;;;4.38;3.85;;;;;;;;;;5108184;28;20043;-59
2023/05/09 03:20:30;;;;;;;5.85;4.20;;;;;;;;;;5109071;28;20039;-69
2023/05/09 03:22:56;;;;;;;4.97;4.00;;;;;;;;;;5106988;28;20397;-65
2023/05/09 03:25:23;;;;;;;5.45;4.22;;;;;;;;;;5107340;28;20111;-68
2023/05/09 03:27:49;;;;;;;4.70;3.47;;;;;;;;;;5107704;28;20027;-62
2023/05/09 03:30:15;;;;;;;4.45;3.65;;;;;;;;;;5107060;28;20030;-68
2023/05/09 03:32:41;;;;;;;4.47;3.80;;;;;;;;;;5109459;28;20027;-61
2023/05/09 03:35:07;;;;;;;4.95;4.10;;;;;;;;;;5108188;28;20049;-71
2023/05/09 03:37:33;;;;;;;7.15;4.22;;;;;;;;;;5106695;28;20069;-63
2023/05/09 03:39:59;;;;;;;6.15;4.40;;;;;;;;;;5109698;28;20470;-61
2023/05/09 03:42:25;;;;;;;4.82;4.03;;;;;;;;;;5109583;28;20022;-70
2023/05/09 03:44:51;;;;;;;4.15;3.60;;;;;;;;;;5107335;28;20038;-62
2023/05/09 03:47:17;;;;;;;4.45;3.85;;;;;;;;;;5107319;28;20066;-70
2023/05/09 03:49:43;;;;;;;4.75;3.80;;;;;;;;;;5106760;28;20463;-71
2023/05/09 03:52:09;;;;;;;5.18;4.15;;;;;;;;;;5107241;28;20088;-71
2023/05/09 03:54:35;;;;;;;4.28;3.72;;;;;;;;;;5107955;28;20039;-67
2023/05/09 03:57:02;;;;;;;5.13;3.63;;;;;;;;;;5107076;28;20031;-70
2023/05/09 03:59:28;;;;;;;5.03;3.88;;;;;;;;;;5105883;28;20380;-60
2023/05/09 04:01:54;;;;;;;5.15;4.22;;;;;;;;;;5107124;28;20046;-58
2023/05/09 04:04:20;;;;;;;4.75;3.92;;;;;;;;;;5106701;28;20099;-68
2023/05/09 04:06:46;;;;;;;4.90;3.95;;;;;;;;;;5106768;28;20024;-59
2023/05/09 04:09:12;;;;;;;5.38;4.45;;;;;;;;;;5108347;28;20050;-57
2023/05/09 04:11:38;;;;;;;5.65;4.07;;;;;;;;;;5108306;28;20027;-64
2023/05/09 04:14:05;;;;;;;5.38;4.00;;;;;;;;;;5107618;28;20042;-61
2023/05/09 04:16:32;;;;;;;7.28;4.53;;;;;;;;;;5106610;28;20023;-69
2023/05/09 04:18:58;;;;;;;5.47;3.72;;;;;;;;;;5107620;28;20161;-64
2023/05/09 04:21:24;;;;;;;4.13;3.40;;;;;;;;;;5106370;28;21703;-69
2023/05/09 04:23:50;;;;;;;4.80;3.95;;;;;;;;;;5105502;28;20403;-68
2023/05/09 04:26:17;;;;;;;5.25;3.60;;;;;;;;;;5109104;28;20031;-67
2023/05/09 04:28:43;;;;;;;4.68;3.80;;;;;;;;;;5107168;28;20059;-62
2023/05/09 04:31:11;;;;;;;4.60;4.13;;;;;;;;;;5106784;28;20024;-64
2023/05/09 04:33:38;;;;;;;5.55;4.43;;;;;;;;;;5106542;28;20122;-68
2023/05/09 04:36:04;;;;;;;4.70;4.03;;;;;;;;;;5106582;28;20035;-59
2023/05/09 04:38:30;;;;;;;5.53;4.35;;;;;;;;;;5106995;28;20436;-66
2023/05/09 04:40:57;;;;;;;4.50;3.90;;;;;;;;;;5111405;28;20035;-59
2023/05/09 04:43:26;;;;;;;4.90;4.05;;;;;;;;;;5110546;28;20020;-58
2023/05/09 04:45:52;;;;;;;4.72;3.97;;;;;;;;;;5110754;28;20034;-69
2023/05/09 04:48:18;;;;;;;4.85;3.80;;;;;;;;;;5110372;28;20023;-66
2023/05/09 04:50:47;;;;;;;4.38;3.80;;;;;;;;;;5110575;28;20072;-58
2023/05/09 04:53:13;;;;;;;5.70;3.67;;;;;;;;;;5112038;28;20038;-62
2023/05/09 04:55:39;;;;;;;5.32;3.92;;;;;;;;;;5111911;28;20031;-56
2023/05/09 04:58:05;;;;;;;4.47;3.67;;;;;;;;;;5110066;28;20043;-62
2023/05/09 05:00:31;;;;;;;4.55;3.92;;;;;;;;;;5110197;28;20097;-59
2023/05/09 05:02:57;;;;;;;4.45;3.63;;;;;;;;;;5109281;28;20035;-69
2023/05/09 05:05:23;;;;;;;4.30;3.90;;;;;;;;;;5110337;28;20024;-66
2023/05/09 05:07:49;;;;;;;5.38;4.05;;;;;;;;;;5110311;28;20479;-58
2023/05/09 05:10:15;;;;;;;3.85;3.28;;;;;;;;;;5112126;28;20047;-68
2023/05/09 05:12:41;;;;;;;4.05;3.40;;;;;;;;;;5111566;28;20058;-65
2023/05/09 05:15:07;;;;;;;5.60;3.97;;;;;;;;;;5109708;28;20111;-70
2023/05/09 05:17:33;;;;;;;5.35;3.50;;;;;;;;;;5112599;28;20107;-65
2023/05/09 05:19:59;;;;;;;4.50;3.88;;;;;;;;;;5112895;28;20547;-61
2023/05/09 05:22:25;;;;;;;6.50;4.40;;;;;;;;;;5111861;28;20023;-57
2023/05/09 05:24:51;;;;;;;4.60;4.07;;;;;;;;;;5113752;28;20479;-58
2023/05/09 05:27:17;;;;;;;4.00;3.22;;;;;;;;;;5114418;28;20023;-68
2023/05/09 05:29:43;;;;;;;5.18;3.53;;;;;;;;;;5113915;28;20035;-69
2023/05/09 05:32:09;;;;;;;4.43;3.95;;;;;;;;;;5113811;28;20069;-58
2023/05/09 05:34:35;;;;;;;5.03;3.72;;;;;;;;;;5113348;28;20469;-59
2023/05/09 05:37:01;;;;;;;7.40;3.85;;;;;;;;;;5113560;28;20024;-60
2023/05/09 05:39:27;;;;;;;6.50;4.05;;;;;;;;;;5113194;28;20032;-58
2023/05/09 05:41:53;;;;;;;4.63;3.55;;;;;;;;;;5113493;28;20039;-61
2023/05/09 05:44:19;;;;;;;5.35;3.70;;;;;;;;;;5114127;28;20031;-69
2023/05/09 05:46:46;;;;;;;7.10;3.92;;;;;;;;;;5112792;28;20040;-67
2023/05/09 05:49:12;;;;;;;4.70;3.30;;;;;;;;;;5113748;28;20023;-68
2023/05/09 05:51:37;;;;;;;4.93;3.90;;;;;;;;;;5111610;28;20024;-67
2023/05/09 05:54:04;;;;;;;5.88;3.95;;;;;;;;;;5113823;28;20105;-62
2023/05/09 05:56:30;;;;;;;6.40;3.45;;;;;;;;;;5113448;28;20027;-64
2023/05/09 05:58:56;;;;;;;5.95;3.80;;;;;;;;;;5112361;28;20063;-66
2023/05/09 06:01:22;;;;;;;6.72;3.80;;;;;;;;;;5113560;28;20115;-64
2023/05/09 06:03:53;;;;;;;7.07;4.10;;;;;;;;;;5112827;28;20035;-58
2023/05/09 06:06:20;;;;;;;5.03;4.10;;;;;;;;;;5112989;28;20628;-68
2023/05/09 06:08:48;;;;;;;5.95;4.40;;;;;;;;;;5112669;28;20036;-64
2023/05/09 06:11:15;;;;;;;5.40;3.83;;;;;;;;;;5113760;28;20059;-69
2023/05/09 06:13:41;;;;;;;6.57;3.83;;;;;;;;;;5113218;28;20399;-65
2023/05/09 06:16:07;;;;;;;5.82;4.18;;;;;;;;;;5113426;28;20023;-63
2023/05/09 06:18:38;;;;;;;6.05;4.50;;;;;;;;;;5112950;28;20444;-63
2023/05/09 06:21:05;;;;;;;5.57;3.65;;;;;;;;;;5112073;28;20044;-68
2023/05/09 06:23:31;;;;;;;4.72;3.80;;;;;;;;;;5112223;28;20057;-72
2023/05/09 06:25:56;;;;;;;7.43;4.53;;;;;;;;;;5112645;28;20094;-56
2023/05/09 06:28:23;;;;;;;8.88;4.60;;;;;;;;;;5112833;28;20106;-57
2023/05/09 06:30:48;;;;;;;4.72;3.70;;;;;;;;;;5112623;28;20023;-71
2023/05/09 06:33:14;;;;;;;6.32;4.70;;;;;;;;;;5112759;28;20073;-69
2023/05/09 06:35:40;;;;;;;5.65;4.00;;;;;;;;;;5112065;28;20058;-63
2023/05/09 06:38:07;;;;;;;5.45;3.83;;;;;;;;;;5112646;28;20368;-68
2023/05/09 06:40:33;;;;;;;7.68;4.00;;;;;;;;;;5112533;28;20080;-60
2023/05/09 06:42:58;;;;;;;7.57;4.18;;;;;;;;;;5112081;28;20030;-71
2023/05/09 06:45:25;;;;;;;4.35;3.58;;;;;;;;;;5112301;28;20090;-58
2023/05/09 06:47:52;;;;;;;5.28;3.88;;;;;;;;;;5111172;27;20028;-70
2023/05/09 06:50:18;;;;;;;4.72;3.30;;;;;;;;;;5111652;28;20391;-63
2023/05/09 06:52:44;;;;;;;4.82;4.05;;;;;;;;;;5112091;28;20472;-58
2023/05/09 06:55:10;;;;;;;8.93;4.38;;;;;;;;;;5111645;28;20433;-61
2023/05/09 06:57:38;;;;;;;5.22;4.07;;;;;;;;;;5111086;28;20020;-58
2023/05/09 07:00:04;;;;;;;4.60;4.07;;;;;;;;;;5112171;28;20035;-66
2023/05/09 07:02:30;;;;;;;6.82;4.53;;;;;;;;;;5111644;28;20027;-69
2023/05/09 07:04:56;;;;;;;5.95;4.00;;;;;;;;;;5112451;28;20475;-60
2023/05/09 07:07:22;;;;;;;4.50;3.78;;;;;;;;;;5112419;28;20076;-62
2023/05/09 07:09:48;;;;;;;5.15;3.67;;;;;;;;;;5112136;28;20027;-59
2023/05/09 07:12:14;;;;;;;6.82;4.03;;;;;;;;;;5112662;28;20031;-68
2023/05/09 07:14:40;;;;;;;5.28;4.28;;;;;;;;;;5111907;28;20066;-69
2023/05/09 07:17:07;;;;;;;5.82;3.72;;;;;;;;;;5112159;28;20146;-71
2023/05/09 07:19:33;;;;;;;5.53;4.28;;;;;;;;;;5111790;28;20471;-60
2023/05/09 07:21:59;;;;;;;6.57;4.15;;;;;;;;;;5112228;28;20035;-71
2023/05/09 07:24:25;;;;;;;5.90;3.42;;;;;;;;;;5112150;28;20034;-70
2023/05/09 07:26:51;;;;;;;5.80;3.28;;;;;;;;;;5111916;28;20034;-71
2023/05/09 07:29:19;;;;;;;5.10;4.13;;;;;;;;;;5112304;28;20085;-57
2023/05/09 07:31:45;;;;;;;5.05;3.90;;;;;;;;;;5112589;28;20031;-71
2023/05/09 07:34:10;;;;;;;7.32;4.13;;;;;;;;;;5111997;28;20498;-58
2023/05/09 07:36:37;;;;;;;4.07;3.65;;;;;;;;;;5111681;28;20030;-64
2023/05/09 07:39:03;;;;;;;5.32;3.90;;;;;;;;;;5111834;28;20027;-69
2023/05/09 07:41:30;;;;;;;6.40;3.60;;;;;;;;;;5111595;28;20031;-64
2023/05/09 07:43:56;;;;;;;6.50;4.18;;;;;;;;;;5111694;28;20383;-72
2023/05/09 07:46:22;;;;;;;5.50;3.40;;;;;;;;;;5111785;28;20110;-72
2023/05/09 07:48:48;;;;;;;5.38;3.63;;;;;;;;;;5111815;28;20023;-72
2023/05/09 07:51:14;;;;;;;4.95;3.65;;;;;;;;;;5111911;28;20084;-72
2023/05/09 07:53:40;;;;;;;3.78;3.47;;;;;;;;;;5111418;28;20023;-71
2023/05/09 07:56:06;;;;;;;5.55;3.58;;;;;;;;;;5111686;28;20391;-58
2023/05/09 07:58:32;;;;;;;5.55;4.05;;;;;;;;;;5111214;28;20047;-56
2023/05/09 08:00:58;;;;;;;4.18;3.40;;;;;;;;;;5111633;28;20070;-68
2023/05/09 08:03:24;;;;;;;4.82;3.88;;;;;;;;;;5111587;28;20030;-67
2023/05/09 08:05:54;;;;;;;4.20;2.95;;;;;;;;;;5111254;28;20019;-65
2023/05/09 08:08:20;;;;;;;5.38;4.00;;;;;;;;;;5111513;28;20433;-69
2023/05/09 08:10:46;;;;;;;3.90;2.95;;;;;;;;;;5111515;28;20440;-64
2023/05/09 08:13:12;;;;;;;5.70;3.67;;;;;;;;;;5111478;28;20107;-59
2023/05/09 08:15:38;;;;;;;4.97;3.10;;;;;;;;;;5115556;28;20379;-72
2023/05/09 08:18:05;;;;;;;5.75;3.78;;;;;;;;;;5115714;28;20019;-58
2023/05/09 08:20:33;;;;;;;3.70;3.08;;;;;;;;;;5115201;28;20046;-68
2023/05/09 08:22:59;;;;;;;3.97;3.17;;;;;;;;;;5115648;28;20145;-71
2023/05/09 08:25:25;;;;;;;6.07;3.38;;;;;;;;;;5115620;28;20482;-66
2023/05/09 08:27:51;;;;;;;3.88;3.28;;;;;;;;;;5115239;28;20027;-66
2023/05/09 08:30:17;;;;;;;4.90;3.15;;;;;;;;;;5115805;28;20031;-61
2023/05/09 08:32:43;;;;;;;4.25;3.03;;;;;;;;;;5115165;28;20390;-71
2023/05/09 08:35:09;;;;;;;4.60;3.42;;;;;;;;;;5115448;28;20098;-71
2023/05/09 08:37:35;;;;;;;4.45;2.95;;;;;;;;;;5114950;28;20471;-72
2023/05/09 08:40:03;;;;;;;4.30;3.08;;;;;;;;;;5115281;28;20031;-72
2023/05/09 08:42:29;;;;;;;4.50;3.63;;;;;;;;;;5114800;28;20031;-72
2023/05/09 08:44:55;;;;;;;4.18;3.45;;;;;;;;;;5115477;28;20413;-69
2023/05/09 08:47:22;;;;;;;4.00;3.13;;;;;;;;;;5115172;28;20103;-72
2023/05/09 08:49:48;;;;;;;5.03;2.78;;;;;;;;;;5115110;28;20028;-64
2023/05/09 08:52:14;;;;;;;4.53;3.30;;;;;;;;;;5115123;28;20387;-71
2023/05/09 08:54:40;;;;;;;5.43;3.17;;;;;;;;;;5114659;28;20408;-60
2023/05/09 08:57:06;;;;;;;3.53;2.45;;;;;;;;;;5114962;27;20042;-68
2023/05/09 08:59:35;;;;;;;3.85;3.00;;;;;;;;;;5114733;28;20024;-60
2023/05/09 09:02:01;;;;;;;4.90;2.83;;;;;;;;;;5115003;27;20065;-69
2023/05/09 09:04:27;;;;;;;4.28;2.67;;;;;;;;;;5114643;28;20066;-57
2023/05/09 09:06:53;;;;;;;3.65;2.63;;;;;;;;;;5114826;28;20483;-71
2023/05/09 09:09:19;;;;;;;3.45;3.15;;;;;;;;;;5114988;28;20387;-61
2023/05/09 09:11:46;;;;;;;3.90;2.47;;;;;;;;;;5114816;28;20485;-71
2023/05/09 09:14:15;;;;;;;3.75;2.70;;;;;;;;;;5114685;28;20063;-72
2023/05/09 09:16:43;;;;;;;7.75;2.95;;;;;;;;;;5114462;28;20055;-59
2023/05/09 09:19:16;;;;;;;3.28;2.67;;;;;;;;;;5114558;28;20497;-62
2023/05/09 09:21:43;;;;;;;3.85;2.22;;;;;;;;;;5114153;28;20036;-71
2023/05/09 09:24:12;;;;;;;3.78;2.20;;;;;;;;;;5114294;28;20081;-70
2023/05/09 09:26:56;;;;;;;2.63;2.42;;;;;;;;;;5114084;28;20117;-67
2023/05/09 09:29:23;;;;;;;6.20;2.80;;;;;;;;;;5114462;27;20493;-69
2023/05/09 09:31:53;;;;;;;2.85;2.33;;;;;;;;;;5114356;28;20028;-61
2023/05/09 09:34:20;;;;;;;3.22;2.40;;;;;;;;;;5114372;27;20023;-58
2023/05/09 09:36:47;;;;;;;3.75;2.97;;;;;;;;;;5114286;28;20104;-58
2023/05/09 09:39:13;;;;;;;2.50;2.10;;;;;;;;;;5114003;28;20556;-71
2023/05/09 09:41:40;;;;;;;3.78;3.10;;;;;;;;;;5113989;28;20027;-58
2023/05/09 09:44:14;;;;;;;3.67;2.65;;;;;;;;;;5114080;28;20051;-69
2023/05/09 09:46:43;;;;;;;2.75;2.38;;;;;;;;;;5113827;28;20028;-70
2023/05/09 09:49:10;;;;;;;3.03;2.70;;;;;;;;;;5113859;28;20464;-70
2023/05/09 09:51:36;;;;;;;3.60;2.50;;;;;;;;;;5113789;28;20032;-67
2023/05/09 09:54:03;;;;;;;2.70;2.15;;;;;;;;;;5114027;28;20035;-59
2023/05/09 09:56:42;;;;;;;3.38;2.05;;;;;;;;;;5113433;28;20495;-64
2023/05/09 09:59:10;;;;;;;3.13;2.28;;;;;;;;;;5113591;28;20024;-58
2023/05/09 10:01:52;;;;;;;3.03;1.95;;;;;;;;;;5113530;28;20040;-65
2023/05/09 10:04:18;;;;;;;3.33;2.78;;;;;;;;;;5114065;28;20015;-71
2023/05/09 10:06:53;;;;;;;3.05;2.15;;;;;;;;;;5113452;28;20180;-64
2023/05/09 10:09:20;;;;;;;2.63;2.17;;;;;;;;;;5114008;28;20129;-59
2023/05/09 10:11:49;;;;;;;3.08;2.42;;;;;;;;;;5113142;28;20043;-61
2023/05/09 10:14:15;;;;;;;2.30;1.92;;;;;;;;;;5113368;28;20507;-70
2023/05/09 10:16:41;;;;;;;3.50;2.10;;;;;;;;;;5113309;28;20032;-58
2023/05/09 10:19:08;;;;;;;2.55;2.15;;;;;;;;;;5113403;28;20020;-72
2023/05/09 10:21:34;;;;;;;2.67;2.00;;;;;;;;;;5112989;28;20118;-64
2023/05/09 10:24:01;;;;;;;3.22;2.60;;;;;;;;;;5113183;28;20016;-58
2023/05/09 10:26:27;;;;;;;3.35;2.30;;;;;;;;;;5112880;28;20104;-58
2023/05/09 10:28:57;;;;;;;3.17;2.20;;;;;;;;;;5113310;28;20102;-69
2023/05/09 10:31:26;;;;;;;3.08;1.58;;;;;;;;;;5113289;28;20023;-55
2023/05/09 10:33:54;;;;;;;2.47;1.95;;;;;;;;;;5113433;28;20027;-56
2023/05/09 10:36:21;;;;;;;2.88;2.10;;;;;;;;;;5112463;28;20502;-72
2023/05/09 10:38:50;;;;;;;2.10;1.77;;;;;;;;;;5112767;28;20483;-70
2023/05/09 10:41:20;;;;;;;2.70;2.20;;;;;;;;;;5112912;28;20558;-57
2023/05/09 10:43:47;;;;;;;2.78;1.73;;;;;;;;;;5112662;28;20488;-68
2023/05/09 10:46:13;;;;;;;2.15;1.88;;;;;;;;;;5112901;28;20038;-68
2023/05/09 10:48:40;;;;;;;2.60;1.67;;;;;;;;;;5112582;27;20032;-65
2023/05/09 10:51:07;;;;;;;2.72;2.08;;;;;;;;;;5112748;28;20024;-70
2023/05/09 10:53:43;;;;;;;3.15;2.05;;;;;;;;;;5112401;28;20019;-66
2023/05/09 10:56:21;;;;;;;2.45;1.85;;;;;;;;;;5112825;28;20024;-70
2023/05/09 10:58:47;;;;;;;2.20;1.75;;;;;;;;;;5112331;28;20097;-58
2023/05/09 11:01:13;;;;;;;2.35;1.73;;;;;;;;;;5112497;28;20035;-62
2023/05/09 11:03:52;;;;;;;2.65;1.77;;;;;;;;;;5112316;28;20084;-58
2023/05/09 11:06:37;;;;;;;2.17;1.48;;;;;;;;;;5112753;28;20023;-68
2023/05/09 11:09:23;;;;;;;2.42;1.48;;;;;;;;;;5112519;28;20023;-71
2023/05/09 11:11:53;;;;;;;2.00;1.60;;;;;;;;;;5112358;28;20027;-69
2023/05/09 11:14:36;;;;;;;2.55;1.80;;;;;;;;;;5112672;28;20023;-72
2023/05/09 11:17:03;;;;;;;2.20;1.73;;;;;;;;;;5112382;28;20034;-60
2023/05/09 11:19:33;;;;;;;2.80;1.90;;;;;;;;;;5111992;28;20429;-57
2023/05/09 11:22:03;;;;;;;2.42;1.73;;;;;;;;;;5112258;28;20043;-72
2023/05/09 11:24:31;;;;;;;2.50;1.92;;;;;;;;;;5111973;28;20019;-57
2023/05/09 11:26:57;;;;;;;2.53;1.80;;;;;;;;;;5111692;28;20103;-73
2023/05/09 11:29:27;;;;;;;2.45;1.70;;;;;;;;;;5112426;28;20074;-61
2023/05/09 11:32:09;;;;;;;2.75;1.52;;;;;;;;;;5112483;28;20034;-60
2023/05/09 11:34:35;;;;;;;2.13;1.60;;;;;;;;;;5111713;28;20131;-72
2023/05/09 11:37:10;;;;;;;1.73;1.48;;;;;;;;;;5112004;28;20520;-69
2023/05/09 11:39:36;;;;;;;1.90;1.60;;;;;;;;;;5111620;28;20036;-69
2023/05/09 11:42:03;;;;;;;1.67;1.10;;;;;;;;;;5111918;28;20058;-72
2023/05/09 11:44:32;;;;;;;2.20;1.70;;;;;;;;;;5111478;28;20076;-57
2023/05/09 11:46:58;;;;;;;2.17;1.55;;;;;;;;;;5111811;28;20077;-69
2023/05/09 11:49:24;;;;;;;2.13;1.42;;;;;;;;;;5111928;28;20052;-73
2023/05/09 11:51:50;;;;;;;2.50;1.65;;;;;;;;;;5111799;28;20125;-71
2023/05/09 11:54:16;;;;;;;2.40;1.50;;;;;;;;;;5111747;28;20491;-58
2023/05/09 11:56:42;;;;;;;2.38;1.60;;;;;;;;;;5111512;28;20065;-56
2023/05/09 11:59:09;;;;;;;1.67;1.40;;;;;;;;;;5111716;28;20095;-65
2023/05/09 12:01:35;;;;;;;1.58;1.40;;;;;;;;;;5111406;27;20024;-59
2023/05/09 12:04:01;;;;;;;1.83;1.27;;;;;;;;;;5111557;28;20440;-73
2023/05/09 12:06:28;;;;;;;1.33;1.15;;;;;;;;;;5111314;28;20475;-68
2023/05/09 12:08:55;;;;;;;2.03;1.20;;;;;;;;;;5112013;28;20039;-70
2023/05/09 12:11:22;;;;;;;2.05;1.58;;;;;;;;;;5111959;28;20486;-59
2023/05/09 12:13:49;;;;;;;1.50;1.17;;;;;;;;;;5111290;28;20020;-70
2023/05/09 12:16:16;;;;;;;1.63;1.25;;;;;;;;;;5111525;28;20108;-58
2023/05/09 12:18:46;;;;;;;1.40;1.05;;;;;;;;;;5111058;28;20026;-70
2023/05/09 12:21:12;;;;;;;1.60;1.20;;;;;;;;;;5111161;28;20127;-62
2023/05/09 12:23:38;;;;;;;1.40;1.25;;;;;;;;;;5111301;28;20024;-69
2023/05/09 12:26:04;;;;;;;1.90;1.20;;;;;;;;;;5111499;28;20028;-64
2023/05/09 12:28:30;;;;;;;1.75;1.20;;;;;;;;;;5111114;28;20035;-65
2023/05/09 12:30:57;;;;;;;2.75;1.40;;;;;;;;;;5111347;28;20455;-56
2023/05/09 12:33:23;;;;;;;1.83;1.30;;;;;;;;;;5111702;28;20081;-57
2023/05/09 12:36:02;;;;;;;1.83;1.23;;;;;;;;;;5111017;28;20028;-73
2023/05/09 12:38:28;;;;;;;1.70;1.13;;;;;;;;;;5110734;28;20547;-59
2023/05/09 12:41:03;;;;;;;1.77;1.15;;;;;;;;;;5111543;28;20131;-73
2023/05/09 12:43:33;;;;;;;1.20;1.00;;;;;;;;;;5110940;28;20098;-73
2023/05/09 12:45:59;;;;;;;2.28;1.15;;;;;;;;;;5111224;28;20483;-59
2023/05/09 12:48:25;;;;;;;1.73;1.40;;;;;;;;;;5111539;28;20030;-71
2023/05/09 12:50:51;;;;;;;1.77;1.00;;;;;;;;;;5111120;28;20468;-60
2023/05/09 12:53:31;;;;;;;1.40;1.00;;;;;;;;;;5111279;28;20054;-61
2023/05/09 12:56:03;;;;;;;1.38;1.15;;;;;;;;;;5111036;28;20062;-65
2023/05/09 12:58:30;;;;;;;1.55;1.10;;;;;;;;;;5110863;28;20483;-71
2023/05/09 13:00:56;;;;;;;1.80;0.95;;;;;;;;;;5113581;28;20130;-60
2023/05/09 13:03:24;;;;;;;1.00;0.85;;;;;;;;;;5115141;28;20051;-71
2023/05/09 13:05:57;;;;;;;2.03;1.20;;;;;;;;;;5114509;28;20042;-73
2023/05/09 13:08:23;;;;;;;1.85;1.02;;;;;;;;;;5115150;28;20020;-60
2023/05/09 13:10:50;;;;;;;1.85;1.13;;;;;;;;;;5114412;28;20077;-61
2023/05/09 13:13:16;;;;;;;1.83;1.13;;;;;;;;;;5114671;28;20028;-69
2023/05/09 13:15:43;;;;;;;1.58;1.00;;;;;;;;;;5114493;28;20027;-63
2023/05/09 13:18:10;;;;;;;1.65;1.15;;;;;;;;;;5114716;28;20016;-72
2023/05/09 13:20:36;;;;;;;1.40;1.00;;;;;;;;;;5114196;28;20409;-59
2023/05/09 13:23:02;;;;;;;1.35;0.85;;;;;;;;;;5114593;28;20023;-71
2023/05/09 13:25:28;;;;;;;1.33;0.80;;;;;;;;;;5114383;28;20106;-56
2023/05/09 13:27:54;;;;;;;1.98;1.35;;;;;;;;;;5114795;28;20031;-72
2023/05/09 13:30:20;;;;;;;1.33;0.90;;;;;;;;;;5114441;28;20110;-64
2023/05/09 13:32:46;;;;;;;1.58;1.00;;;;;;;;;;5114248;28;20103;-59
2023/05/09 13:35:12;;;;;;;1.52;0.80;;;;;;;;;;5114397;28;20491;-63
2023/05/09 13:37:38;;;;;;;1.38;1.00;;;;;;;;;;5113934;28;20020;-72
2023/05/09 13:40:05;;;;;;;1.30;0.95;;;;;;;;;;5114291;28;20042;-68
2023/05/09 13:42:33;;;;;;;1.27;0.93;;;;;;;;;;5114128;28;20030;-73
2023/05/09 13:44:59;;;;;;;1.50;1.00;;;;;;;;;;5114310;28;20024;-72
2023/05/09 13:47:25;;;;;;;1.23;0.90;;;;;;;;;;5114555;28;20084;-58
2023/05/09 13:49:51;;;;;;;1.30;0.80;;;;;;;;;;5113800;28;20479;-71
2023/05/09 13:52:17;;;;;;;1.42;1.08;;;;;;;;;;5114002;28;20039;-58
2023/05/09 13:54:44;;;;;;;1.77;0.80;;;;;;;;;;5113764;28;20533;-67
2023/05/09 13:57:10;;;;;;;1.15;0.73;;;;;;;;;;5113974;28;20027;-73
2023/05/09 13:59:36;;;;;;;1.05;0.80;;;;;;;;;;5113415;28;20059;-60
2023/05/09 14:02:03;;;;;;;1.38;1.00;;;;;;;;;;5113891;28;20027;-57
2023/05/09 14:04:30;;;;;;;2.05;0.90;;;;;;;;;;5113484;28;20455;-70
2023/05/09 14:06:57;;;;;;;2.22;0.82;;;;;;;;;;5113905;27;20551;-71
2023/05/09 14:09:23;;;;;;;1.30;0.80;;;;;;;;;;5113791;28;20023;-64
2023/05/09 14:11:52;;;;;;;0.93;0.75;;;;;;;;;;5112284;28;20046;-72
2023/05/09 14:14:19;;;;;;;1.00;0.70;;;;;;;;;;5113563;28;20027;-70
2023/05/09 14:16:45;;;;;;;1.20;0.80;;;;;;;;;;5113384;28;20020;-59
2023/05/09 14:19:11;;;;;;;2.72;1.10;;;;;;;;;;5113580;28;20024;-60
2023/05/09 14:21:38;;;;;;;2.22;1.20;;;;;;;;;;5112909;28;20075;-58
2023/05/09 14:24:04;;;;;;;1.73;1.15;;;;;;;;;;5113415;27;20024;-73
2023/05/09 14:26:30;;;;;;;1.55;0.90;;;;;;;;;;5113135;28;20028;-73
2023/05/09 14:28:56;;;;;;;1.05;0.88;;;;;;;;;;5113594;28;20026;-68
2023/05/09 14:31:22;;;;;;;1.33;0.98;;;;;;;;;;5113523;28;20023;-57
2023/05/09 14:33:48;;;;;;;1.20;0.85;;;;;;;;;;5112911;28;20023;-73
2023/05/09 14:36:14;;;;;;;1.20;0.90;;;;;;;;;;5113186;28;20027;-71
2023/05/09 14:38:41;;;;;;;2.03;1.10;;;;;;;;;;5112794;27;20392;-72
2023/05/09 14:41:07;;;;;;;1.33;1.17;;;;;;;;;;5113090;28;20085;-69
2023/05/09 14:43:33;;;;;;;1.90;0.80;;;;;;;;;;5112781;28;20020;-71